Huanghuashi, China
Current Conditions -  °F | °C
As of 9:00 AM on Friday 19 Dec 2014 (Local Time) from ZGHA Reporting Station
Clear Clear  
Wind Chill: 40°   Ceiling: Unl
Heat Index: 43°   Visibility: 6mi
Dew Point: 37°   Wind: 4mph
Humidity: 81%   Direction: 140°SE
Pressure: 30.39"   Gusts: NA
Location:  28.22°N, 113.28°E
Report Text: ZGHA 190100Z 14002MPS CAVOK 06/03 Q1029 NOSIG
Loading
Personal Weather Stations






























Interactive Weather Map New forecast layout! Learn more

10-Day Weather Forecast

Advertisements
Track Severe Weather on mobile